Time;durP1;ratioP1;P1;durP2;ratioP2;P2;SDS_P1;SDS_P2;PMS_P1;PMS_P2;Temp;Humidity;BMP_temperature;BMP_pressure;BME280_temperature;BME280_humidity;BME280_pressure;Samples;Min_cycle;Max_cycle;Signal;HPM_P1;HPM_P2
2021/04/21 00:02:56;;;;;;;20.20;11.13;;;2.90;99.90;;;;;;20989609;28;20041;-43
2021/04/21 00:12:58;;;;;;;19.52;11.27;;;2.50;99.90;;;;;;20988243;28;20460;-43
2021/04/21 00:23:04;;;;;;;23.10;12.00;;;2.30;99.90;;;;;;21047952;28;20073;-43
2021/04/21 00:33:06;;;;;;;24.42;12.50;;;2.30;99.90;;;;;;20989192;28;20032;-44
2021/04/21 00:43:31;;;;;;;24.65;13.68;;;2.10;99.90;;;;;;20987836;28;20036;-43
2021/04/21 00:53:54;;;;;;;25.13;14.00;;;1.90;99.90;;;;;;20987715;28;20408;-45
2021/04/21 01:03:58;;;;;;;24.55;13.35;;;1.70;99.90;;;;;;20969630;28;20093;-42
2021/04/21 01:14:23;;;;;;;26.70;14.98;;;1.50;99.90;;;;;;20968936;28;20114;-42
2021/04/21 01:24:55;;;;;;;26.63;14.02;;;1.50;99.90;;;;;;21032240;28;20043;-43
2021/04/21 01:34:58;;;;;;;25.02;14.00;;;1.50;99.90;;;;;;21085264;28;20449;-46
2021/04/21 01:45:01;;;;;;;29.17;14.52;;;1.50;99.90;;;;;;21084109;28;20066;-43
2021/04/21 01:55:44;;;;;;;27.73;14.15;;;1.60;99.90;;;;;;21083029;28;20485;-42
2021/04/21 02:06:24;;;;;;;28.52;14.40;;;1.70;99.90;;;;;;21079799;28;20113;-42
2021/04/21 02:16:36;;;;;;;25.80;13.88;;;1.60;99.90;;;;;;21071663;28;20110;-43
2021/04/21 02:26:49;;;;;;;23.98;13.35;;;1.60;99.90;;;;;;20997512;28;20075;-43
2021/04/21 02:37:07;;;;;;;24.65;12.93;;;1.50;99.90;;;;;;20995693;28;20082;-43
2021/04/21 02:47:20;;;;;;;25.77;13.45;;;1.50;99.90;;;;;;20995583;28;20036;-43
2021/04/21 02:57:32;;;;;;;25.65;13.30;;;1.50;99.90;;;;;;20994714;28;20110;-42
2021/04/21 03:07:49;;;;;;;24.00;13.45;;;1.70;99.90;;;;;;20993737;28;20040;-43
2021/04/21 03:17:53;;;;;;;27.10;14.63;;;1.80;99.90;;;;;;20993241;28;20051;-43
2021/04/21 03:27:59;;;;;;;31.27;14.65;;;1.50;99.90;;;;;;21057866;28;20040;-49
2021/04/21 03:38:08;;;;;;;34.40;16.42;;;1.30;99.90;;;;;;21075165;28;20109;-44
2021/04/21 03:48:11;;;;;;;32.30;17.80;;;1.20;99.90;;;;;;21074427;28;20032;-43
2021/04/21 03:58:21;;;;;;;36.15;17.77;;;1.00;99.90;;;;;;21073863;28;20035;-48
2021/04/21 04:08:26;;;;;;;34.78;19.13;;;1.00;99.90;;;;;;21074259;28;20052;-43
2021/04/21 04:18:30;;;;;;;41.65;20.52;;;1.10;99.90;;;;;;21048984;28;20048;-45
2021/04/21 04:28:33;;;;;;;41.38;20.35;;;1.10;99.90;;;;;;20987993;28;20044;-43
2021/04/21 04:38:35;;;;;;;38.60;19.83;;;1.20;99.90;;;;;;20988142;28;20040;-43
2021/04/21 04:48:49;;;;;;;36.92;19.30;;;1.30;99.90;;;;;;20989039;28;20098;-43
2021/04/21 04:58:55;;;;;;;32.28;16.42;;;1.70;99.90;;;;;;20991830;28;20041;-48
2021/04/21 05:09:02;;;;;;;32.42;17.65;;;2.00;99.90;;;;;;21003347;28;20040;-47
2021/04/21 05:19:20;;;;;;;27.05;15.50;;;2.10;99.90;;;;;;21030849;28;20081;-43
2021/04/21 05:29:43;;;;;;;23.30;14.27;;;2.30;99.90;;;;;;21086735;28;20040;-44
2021/04/21 05:40:29;;;;;;;28.27;15.10;;;2.50;99.90;;;;;;21066655;28;20028;-44
2021/04/21 05:51:01;;;;;;;23.63;14.23;;;2.80;99.90;;;;;;21084044;28;20040;-43
2021/04/21 06:01:34;;;;;;;29.15;16.35;;;3.20;99.90;;;;;;21082789;28;20036;-44
2021/04/21 06:11:36;;;;;;;26.70;15.70;;;3.80;99.90;;;;;;21080944;28;20044;-43
2021/04/21 06:21:39;;;;;;;27.13;15.70;;;4.40;99.90;;;;;;21031549;28;20118;-45
2021/04/21 06:31:52;;;;;;;27.20;15.55;;;5.50;99.90;;;;;;20997034;28;20083;-44
2021/04/21 06:41:59;;;;;;;26.27;16.77;;;7.40;99.90;;;;;;20996623;28;20058;-44
2021/04/21 06:52:15;;;;;;;20.20;14.23;;;9.60;99.90;;;;;;20995564;28;20553;-48
2021/04/21 07:02:16;;;;;;;18.85;13.15;;;10.90;99.90;;;;;;20994486;28;20435;-45
2021/04/21 07:12:18;;;;;;;17.33;12.23;;;11.80;99.90;;;;;;20994242;28;20094;-45
2021/04/21 07:22:20;;;;;;;16.55;12.05;;;12.00;99.90;;;;;;20993683;28;20484;-51
2021/04/21 07:32:23;;;;;;;18.67;13.40;;;12.30;99.90;;;;;;20992212;28;20093;-45
2021/04/21 07:42:25;;;;;;;18.33;13.60;;;13.10;99.30;;;;;;20991341;28;20045;-45
2021/04/21 07:52:32;;;;;;;20.55;14.85;;;13.20;98.40;;;;;;20990496;28;20052;-51
2021/04/21 08:02:35;;;;;;;19.40;14.60;;;13.40;97.00;;;;;;20989894;28;20480;-45
2021/04/21 08:12:38;;;;;;;22.95;16.65;;;13.40;96.10;;;;;;20989183;28;20106;-45
2021/04/21 08:22:39;;;;;;;22.70;16.10;;;12.70;97.50;;;;;;21046984;28;20044;-48
2021/04/21 08:32:42;;;;;;;23.38;15.65;;;12.90;97.40;;;;;;20989129;28;20045;-45
2021/04/21 08:42:47;;;;;;;21.90;15.23;;;12.10;97.90;;;;;;20987866;28;20086;-46
2021/04/21 08:52:57;;;;;;;23.45;15.55;;;11.00;99.40;;;;;;20989064;28;20365;-44
2021/04/21 09:03:01;;;;;;;20.83;15.00;;;10.20;99.90;;;;;;20987209;28;20044;-43
2021/04/21 09:13:03;;;;;;;24.50;15.38;;;9.60;99.90;;;;;;20986883;28;20053;-44
2021/04/21 09:23:11;;;;;;;21.83;14.98;;;9.50;99.90;;;;;;21030726;28;20168;-44
2021/04/21 09:33:13;;;;;;;20.23;14.18;;;9.70;99.90;;;;;;21069771;28;20391;-44
2021/04/21 09:43:19;;;;;;;26.10;16.30;;;10.60;99.90;;;;;;21052822;28;20035;-44
2021/04/21 09:53:27;;;;;;;20.27;14.98;;;11.70;99.90;;;;;;21066541;28;20032;-43
2021/04/21 10:03:29;;;;;;;23.30;14.63;;;11.80;99.90;;;;;;21083080;28;20097;-44
2021/04/21 10:13:47;;;;;;;23.08;15.88;;;11.30;98.40;;;;;;21081883;28;20125;-44
2021/04/21 10:23:51;;;;;;;21.50;13.63;;;10.60;99.90;;;;;;21013071;28;20033;-45
2021/04/21 10:33:53;;;;;;;18.00;12.32;;;10.20;99.20;;;;;;20996766;28;20033;-43
2021/04/21 10:44:12;;;;;;;19.58;12.77;;;9.90;98.40;;;;;;20978025;28;20036;-43
2021/04/21 10:54:14;;;;;;;23.08;13.32;;;9.50;99.80;;;;;;20994519;28;20032;-44
2021/04/21 11:04:16;;;;;;;24.02;14.05;;;9.20;99.90;;;;;;20994409;28;20473;-44
2021/04/21 11:14:40;;;;;;;19.30;12.45;;;8.70;99.90;;;;;;20993510;28;20106;-43
2021/04/21 11:24:42;;;;;;;23.13;13.75;;;8.50;99.90;;;;;;21068466;28;20032;-44
2021/04/21 11:34:44;;;;;;;24.70;14.60;;;8.70;99.90;;;;;;21058325;28;20093;-44
2021/04/21 11:44:52;;;;;;;21.85;14.23;;;9.20;99.90;;;;;;21057787;28;20062;-46
2021/04/21 11:54:54;;;;;;;24.98;15.25;;;10.00;99.90;;;;;;21074752;28;20112;-44
2021/04/21 12:04:56;;;;;;;23.65;14.73;;;9.80;99.90;;;;;;21073734;28;20093;-45
2021/04/21 12:15:06;;;;;;;25.42;16.65;;;8.70;99.90;;;;;;21073019;28;20169;-49
2021/04/21 12:25:09;;;;;;;22.50;13.90;;;8.10;99.90;;;;;;20993216;28;20557;-44
2021/04/21 12:35:12;;;;;;;26.95;15.57;;;8.10;99.90;;;;;;20988527;28;20059;-43
2021/04/21 12:45:27;;;;;;;21.98;13.43;;;8.40;99.90;;;;;;20988081;28;20028;-46
2021/04/21 12:55:29;;;;;;;19.45;12.75;;;8.50;99.90;;;;;;20987678;28;20041;-44
2021/04/21 13:05:50;;;;;;;17.25;11.25;;;8.80;99.90;;;;;;20988371;28;20036;-44
2021/04/21 13:15:54;;;;;;;17.75;11.40;;;9.80;99.90;;;;;;20970661;28;20056;-44
2021/04/21 13:25:59;;;;;;;19.02;10.55;;;9.70;99.90;;;;;;21084178;28;20028;-45
2021/04/21 13:36:00;;;;;;;15.82;11.15;;;9.60;99.90;;;;;;21085209;28;20040;-43
2021/04/21 13:46:03;;;;;;;20.92;13.90;;;9.60;98.20;;;;;;21084355;28;20044;-44
2021/04/21 13:56:05;;;;;;;17.38;10.80;;;9.40;99.70;;;;;;21083533;28;20040;-44
2021/04/21 14:06:07;;;;;;;16.58;11.50;;;9.20;98.60;;;;;;21082820;28;20093;-44
2021/04/21 14:16:08;;;;;;;21.80;13.85;;;9.00;98.90;;;;;;21077917;28;20048;-48
2021/04/21 14:26:10;;;;;;;19.83;13.38;;;8.80;99.90;;;;;;20998830;28;20059;-45
2021/04/21 14:36:12;;;;;;;19.75;13.90;;;8.90;99.90;;;;;;20995761;28;20108;-44
2021/04/21 14:46:14;;;;;;;16.75;12.30;;;9.30;99.90;;;;;;20996339;28;20032;-49
2021/04/21 14:56:17;;;;;;;16.13;11.30;;;10.00;99.90;;;;;;20995512;28;20040;-44
2021/04/21 15:06:19;;;;;;;13.43;9.73;;;10.20;99.80;;;;;;20976892;28;20033;-43
2021/04/21 15:16:25;;;;;;;14.95;10.18;;;9.40;99.90;;;;;;20999049;28;20164;-44
2021/04/21 15:26:33;;;;;;;16.63;11.18;;;8.60;99.90;;;;;;21076750;28;20434;-44
2021/04/21 15:36:36;;;;;;;16.38;11.88;;;8.20;99.90;;;;;;21076126;28;20044;-43
2021/04/21 15:46:39;;;;;;;14.20;10.38;;;8.20;99.90;;;;;;21075547;28;20070;-46
2021/04/21 15:56:42;;;;;;;13.27;9.27;;;8.20;99.90;;;;;;21074515;28;20388;-44
2021/04/21 16:07:00;;;;;;;14.00;9.30;;;9.10;99.90;;;;;;21055670;28;20360;-44
2021/04/21 16:17:02;;;;;;;13.95;9.27;;;9.60;98.40;;;;;;21061415;28;20412;-44
2021/04/21 16:27:05;;;;;;;13.70;9.57;;;9.10;97.40;;;;;;20988186;28;20040;-44
2021/04/21 16:37:07;;;;;;;14.35;10.35;;;8.40;97.50;;;;;;20988263;28;20078;-43
2021/04/21 16:47:11;;;;;;;14.60;10.85;;;8.00;99.80;;;;;;20988037;28;20040;-44
2021/04/21 16:57:15;;;;;;;16.45;11.02;;;7.80;99.90;;;;;;20996180;28;20033;-43
2021/04/21 17:07:17;;;;;;;16.08;11.07;;;7.70;99.90;;;;;;21003901;28;20036;-46
2021/04/21 17:17:26;;;;;;;15.82;11.18;;;7.40;99.90;;;;;;21017715;28;20179;-43
2021/04/21 17:27:28;;;;;;;16.30;11.57;;;7.00;99.90;;;;;;21086105;28;20097;-44
2021/04/21 17:37:30;;;;;;;18.10;12.13;;;6.40;99.90;;;;;;21085330;28;20036;-43
2021/04/21 17:47:33;;;;;;;20.45;13.27;;;5.80;99.90;;;;;;21072733;28;20475;-42
2021/04/21 17:57:35;;;;;;;23.27;15.05;;;5.20;99.90;;;;;;21082737;28;20020;-43
2021/04/21 18:07:38;;;;;;;24.40;14.32;;;4.50;99.90;;;;;;21082375;28;20081;-43
2021/04/21 18:17:40;;;;;;;22.02;14.00;;;4.00;99.90;;;;;;21046908;28;20561;-43
2021/04/21 18:27:42;;;;;;;21.83;13.90;;;3.90;99.90;;;;;;20996778;28;20097;-43
2021/04/21 18:37:45;;;;;;;21.23;13.52;;;3.90;99.90;;;;;;20996526;28;20097;-43
2021/04/21 18:47:48;;;;;;;21.20;13.63;;;4.00;99.90;;;;;;20995942;28;20029;-43
2021/04/21 18:57:50;;;;;;;23.95;14.32;;;3.80;99.90;;;;;;20995280;28;20028;-44
2021/04/21 19:07:54;;;;;;;22.48;14.40;;;3.80;99.90;;;;;;20994411;28;20032;-43
2021/04/21 19:17:56;;;;;;;21.15;13.60;;;4.00;99.90;;;;;;21011779;28;20056;-42
2021/04/21 19:28:00;;;;;;;24.20;14.88;;;4.00;99.90;;;;;;21075888;28;20105;-43
2021/04/21 19:38:05;;;;;;;23.35;15.43;;;4.10;99.90;;;;;;21042521;28;20036;-43
2021/04/21 19:48:09;;;;;;;23.52;15.05;;;4.40;99.90;;;;;;21076929;28;20085;-44
2021/04/21 19:58:12;;;;;;;27.50;17.05;;;4.70;99.90;;;;;;21075784;28;20108;-43
2021/04/21 20:08:16;;;;;;;27.83;16.98;;;4.60;99.90;;;;;;21074877;28;20028;-43
2021/04/21 20:18:18;;;;;;;29.23;17.85;;;4.20;99.90;;;;;;21052275;28;20097;-43
2021/04/21 20:28:20;;;;;;;27.73;17.05;;;3.80;99.90;;;;;;20987845;28;20044;-44
2021/04/21 20:38:22;;;;;;;30.33;18.20;;;3.50;99.90;;;;;;20989756;28;20093;-45
2021/04/21 20:48:23;;;;;;;33.50;18.80;;;3.30;99.90;;;;;;20989234;28;20037;-44
2021/04/21 20:58:25;;;;;;;34.78;19.88;;;2.80;99.90;;;;;;20971172;28;20041;-43
2021/04/21 21:08:28;;;;;;;32.78;18.77;;;2.70;99.90;;;;;;20970660;28;20044;-43
2021/04/21 21:18:30;;;;;;;36.67;21.52;;;2.80;99.90;;;;;;20987827;28;20061;-45
2021/04/21 21:28:32;;;;;;;36.05;20.20;;;3.10;99.90;;;;;;20987676;28;20427;-43
2021/04/21 21:38:35;;;;;;;33.78;20.45;;;3.70;99.90;;;;;;20987957;28;20040;-42
2021/04/21 21:48:37;;;;;;;30.85;18.75;;;4.30;99.90;;;;;;21001937;28;20153;-43
2021/04/21 21:58:40;;;;;;;31.42;18.73;;;4.60;99.90;;;;;;21057706;28;20342;-43
2021/04/21 22:08:43;;;;;;;29.38;18.80;;;4.80;99.90;;;;;;21084204;28;20054;-43
2021/04/21 22:18:46;;;;;;;30.50;19.80;;;4.80;99.90;;;;;;21057515;28;20072;-47
2021/04/21 22:28:48;;;;;;;29.60;18.50;;;4.90;99.90;;;;;;20999031;28;20044;-45
2021/04/21 22:38:51;;;;;;;32.80;19.85;;;5.00;99.90;;;;;;20998326;28;20094;-43
2021/04/21 22:48:54;;;;;;;34.35;22.55;;;4.40;99.90;;;;;;20997106;28;20041;-43
2021/04/21 22:58:55;;;;;;;35.60;21.90;;;4.00;99.90;;;;;;20995581;28;20114;-44
2021/04/21 23:08:58;;;;;;;36.67;21.90;;;3.90;99.90;;;;;;20995609;28;20806;-43
2021/04/21 23:19:00;;;;;;;39.53;22.55;;;3.90;99.90;;;;;;21022461;28;20113;-43
2021/04/21 23:29:03;;;;;;;40.78;23.48;;;3.80;99.90;;;;;;21078082;28;20116;-44
2021/04/21 23:39:05;;;;;;;37.80;23.02;;;3.40;99.90;;;;;;21077814;28;20311;-44
2021/04/21 23:49:07;;;;;;;34.45;21.73;;;3.20;99.90;;;;;;21058311;28;20048;-43
2021/04/21 23:59:09;;;;;;;41.45;24.30;;;3.20;99.90;;;;;;21057491;28;20125;-43
